Josco Star — VRBS3 — position and weather

sailwx.info

Track history (hours):
 
Tides and Currents Weather Stations Pressure Air Temp Water Temp Dewpoint Dewpoint Depression Visibility Wind Speed Wind Dir Waves Ship Positions

Josco Star

Last reported at 2017-Dec-17 15:29 UTC. Time now 2017-Dec-17 15:47 UTC.
Position N 35°36' E 139°47'.

Length 143 m; draft 7 m.

Type: Cargo ship. MMSI: 477105800.

Date/timePositionNaut miles runAvg speedWind from/ knotsBaromVisibWave heightAir tempDewpointWater temp
2017-Dec-17 15:29N 35°36' E 139°47'0 0.0
2017-Dec-17 14:59N 35°36' E 139°47'0 0.0
2017-Dec-17 14:29N 35°36' E 139°47'0 0.0
2017-Dec-17 13:59N 35°36' E 139°47'0 0.0
2017-Dec-17 13:29N 35°36' E 139°47'0 0.0
2017-Dec-17 12:59N 35°36' E 139°47'0 0.0
2017-Dec-17 12:29N 35°36' E 139°47'0 0.1
2017-Dec-17 12:00N 35°36' E 139°47'2 3.4
2017-Dec-17 11:30N 35°35' E 139°48'510.7
2017-Dec-17 11:00N 35°31' E 139°52'611.0
2017-Dec-17 10:30N 35°26' E 139°48'5 9.7
2017-Dec-17 10:00N 35°26' E 139°42'1 2.1
2017-Dec-17 09:30N 35°26' E 139°41'0 0.1
2017-Dec-17 09:00N 35°26' E 139°41'0 0.0
2017-Dec-17 08:30N 35°26' E 139°41'0 0.0
2017-Dec-17 08:00N 35°26' E 139°41'0 0.0
2017-Dec-17 07:30N 35°26' E 139°41'0 0.0
2017-Dec-17 07:00N 35°26' E 139°41'0 0.0
2017-Dec-17 06:30N 35°26' E 139°41'0 0.0
2017-Dec-17 06:00N 35°26' E 139°41'0 0.0
2017-Dec-17 05:30N 35°26' E 139°41'0 0.0
2017-Dec-17 05:00N 35°26' E 139°41'0 0.0
2017-Dec-17 04:30N 35°26' E 139°41'0 0.0
2017-Dec-17 04:00N 35°26' E 139°41'0 0.0
2017-Dec-17 03:30N 35°26' E 139°41'0 0.0
2017-Dec-17 03:00N 35°26' E 139°41'1 2.2
2017-Dec-17 02:30N 35°26' E 139°42'4 8.0
2017-Dec-17 02:00N 35°23' E 139°43'612.0
2017-Dec-17 01:31N 35°17' E 139°46'612.2
2017-Dec-17 01:00N 35°11' E 139°47'713.1
2017-Dec-17 00:30N 35°05' E 139°44'713.9
2017-Dec-17 00:00N 35°00' E 139°37'714.9
2017-Dec-16 23:31N 34°56' E 139°30'815.1
2017-Dec-16 23:00N 34°52' E 139°22'815.3
2017-Dec-16 22:29N 34°46' E 139°15'814.3
2017-Dec-16 21:56N 34°40' E 139°09'614.3
2017-Dec-16 21:30N 34°35' E 139°04'714.1
2017-Dec-16 21:01N 34°31' E 138°58'714.3
2017-Dec-16 20:30N 34°26' E 138°51'714.2
2017-Dec-16 20:00N 34°23' E 138°43'814.9
2017-Dec-16 19:30N 34°21' E 138°35'714.1
2017-Dec-16 18:59N 34°18' E 138°26'713.5
2017-Dec-16 18:30N 34°16' E 138°19'713.5
2017-Dec-16 18:00N 34°13' E 138°12'813.9
2017-Dec-16 17:26N 34°10' E 138°03'613.8
2017-Dec-16 17:00N 34°08' E 137°56'14512.9
2017-Dec-16 05:48N 33°46' E 135°04'514.5
2017-Dec-16 05:28N 33°50' E 134°60'715.5
2017-Dec-16 05:00N 33°57' E 134°59'815.6
2017-Dec-16 04:30N 34°05' E 134°58'815.7
2017-Dec-16 04:00N 34°13' E 134°59'815.3
2017-Dec-16 03:31N 34°20' E 134°60'714.5
2017-Dec-16 03:00N 34°26' E 135°06'714.9
2017-Dec-16 02:31N 34°31' E 135°12'612.7
2017-Dec-16 02:00N 34°36' E 135°16'3 6.4
2017-Dec-16 01:30N 34°39' E 135°15'0 0.0
2017-Dec-16 01:00N 34°39' E 135°15'0 0.0
2017-Dec-16 00:30N 34°39' E 135°15'0 0.0
2017-Dec-16 00:00N 34°39' E 135°15'0 0.0
2017-Dec-15 23:30N 34°39' E 135°15'0 0.0
2017-Dec-15 23:00N 34°39' E 135°15'0 0.2
2017-Dec-15 22:31N 34°39' E 135°15'4 7.1
2017-Dec-15 22:01N 34°38' E 135°19'4 8.4
2017-Dec-15 21:31N 34°39' E 135°24'0 0.3
2017-Dec-15 21:00N 34°39' E 135°24'0 0.0
2017-Dec-15 20:27N 34°39' E 135°24'0 0.0
2017-Dec-15 20:00N 34°39' E 135°24'0 0.0
2017-Dec-15 19:27N 34°39' E 135°24'0 0.0
2017-Dec-15 18:57N 34°39' E 135°24'0 0.0
2017-Dec-15 18:27N 34°39' E 135°24'0 0.0
2017-Dec-15 18:00N 34°39' E 135°24'0 0.0
2017-Dec-15 17:27N 34°39' E 135°24'0 0.0
2017-Dec-15 16:57N 34°39' E 135°24'0 0.0
2017-Dec-15 16:30N 34°39' E 135°24'0 0.0
2017-Dec-15 16:00N 34°39' E 135°24'0 0.0
2017-Dec-15 15:27N 34°39' E 135°24'0 0.0
2017-Dec-15 14:57N 34°39' E 135°24'0 0.0
2017-Dec-15 14:27N 34°39' E 135°24'0 0.0
2017-Dec-15 14:00N 34°39' E 135°24'0 0.0
2017-Dec-15 13:30N 34°39' E 135°24'0 0.0
2017-Dec-15 13:00N 34°39' E 135°24'0 0.0
2017-Dec-15 12:27N 34°39' E 135°24'0 0.0
2017-Dec-15 12:00N 34°39' E 135°24'0 0.0
2017-Dec-15 11:29N 34°39' E 135°24'0 0.0
2017-Dec-15 10:57N 34°39' E 135°24'0 0.1
2017-Dec-15 10:30N 34°39' E 135°24'1 2.6
2017-Dec-15 10:00N 34°38' E 135°23'611.3
2017-Dec-15 09:31N 34°34' E 135°18'714.6
2017-Dec-15 09:00N 34°29' E 135°12'714.6
2017-Dec-15 08:30N 34°23' E 135°06'714.6
2017-Dec-15 08:01N 34°18' E 134°60'714.6
2017-Dec-15 07:31N 34°11' E 134°60'714.2
2017-Dec-15 07:01N 34°04' E 134°59'714.6
2017-Dec-15 06:30N 33°56' E 134°59'714.3
2017-Dec-15 06:00N 33°49' E 134°59'814.9
2017-Dec-15 05:30N 33°43' E 134°54'  
2017-Dec-12 02:04N 31°06' E 122°23'212.7
2017-Dec-12 01:55N 31°06' E 122°21'512.5
2017-Dec-12 01:30N 31°08' E 122°15'913.1
2017-Dec-12 00:49N 31°13' E 122°07'412.1
2017-Dec-12 00:30N 31°14' E 122°02'711.7
2017-Dec-11 23:51N 31°16' E 121°54'411.4
2017-Dec-11 23:30N 31°17' E 121°49'810.9
2017-Dec-11 22:45N 31°20' E 121°41'310.4
2017-Dec-11 22:26N 31°22' E 121°37'410.2
2017-Dec-11 22:00N 31°24' E 121°33'4 8.5
2017-Dec-11 21:30N 31°27' E 121°29'510.0
2017-Dec-11 21:00N 31°30' E 121°25'510.0
2017-Dec-11 20:30N 31°33' E 121°20'510.3
2017-Dec-11 20:00N 31°37' E 121°16'3 6.8
2017-Dec-11 19:31N 31°39' E 121°13'0 0.1
2017-Dec-11 18:54N 31°39' E 121°13'0 0.0
2017-Dec-11 18:30N 31°39' E 121°13'0 0.0
2017-Dec-11 18:00N 31°39' E 121°13'0 0.0
2017-Dec-11 17:30N 31°39' E 121°13'0 0.1
2017-Dec-11 16:54N 31°39' E 121°13'0 0.0
2017-Dec-11 16:30N 31°39' E 121°13'0 0.0
2017-Dec-11 15:30N 31°39' E 121°13'0 0.1
2017-Dec-11 14:30N 31°39' E 121°13'0 0.1
2017-Dec-11 14:00N 31°39' E 121°13'0 0.1
2017-Dec-11 13:30N 31°39' E 121°13'0 0.1
2017-Dec-11 12:57N 31°39' E 121°13'0 0.1
2017-Dec-11 12:30N 31°39' E 121°13'0 0.1
2017-Dec-11 12:00N 31°39' E 121°13'0 0.1
2017-Dec-11 11:30N 31°39' E 121°13'0 0.0
2017-Dec-11 11:00N 31°39' E 121°13'0 0.1
2017-Dec-11 10:30N 31°39' E 121°13'0 0.0
2017-Dec-11 09:48N 31°39' E 121°13'0 0.0
2017-Dec-11 09:30N 31°39' E 121°13'0 0.0
2017-Dec-11 09:00N 31°39' E 121°13'0 0.0
2017-Dec-11 08:30N 31°39' E 121°13'0 0.0
2017-Dec-11 07:54N 31°39' E 121°13'1 2.2
2017-Dec-11 07:30N 31°39' E 121°14'0 0.6
2017-Dec-11 06:59N 31°39' E 121°14'0 0.0
2017-Dec-11 06:29N 31°39' E 121°14'0 0.0
2017-Dec-11 05:56N 31°39' E 121°14'0 0.0
2017-Dec-11 05:05N 31°39' E 121°14'0 0.0
2017-Dec-11 04:59N 31°39' E 121°14'0 0.1
2017-Dec-11 04:23N 31°39' E 121°14'0 0.0
2017-Dec-11 03:59N 31°39' E 121°14'0 0.0
2017-Dec-11 03:29N 31°39' E 121°14'0 0.0
2017-Dec-11 02:56N 31°39' E 121°14'0 0.0
2017-Dec-11 02:20N 31°39' E 121°14'0 0.0
2017-Dec-11 01:59N 31°39' E 121°14'0 0.0
2017-Dec-11 01:29N 31°39' E 121°14'0 0.2
2017-Dec-11 00:59N 31°39' E 121°14'0 0.1
2017-Dec-11 00:29N 31°39' E 121°14'0 0.1
2017-Dec-10 23:59N 31°39' E 121°14'0 0.0
2017-Dec-10 23:29N 31°39' E 121°14'0 0.0
2017-Dec-10 22:47N 31°39' E 121°14'0 0.0
2017-Dec-10 22:29N 31°39' E 121°14'0 0.0
2017-Dec-10 21:53N 31°39' E 121°14'0 0.1
2017-Dec-10 21:29N 31°39' E 121°14'0 0.2
2017-Dec-10 20:59N 31°39' E 121°14'0 0.1
2017-Dec-10 20:05N 31°39' E 121°14'0 0.0
2017-Dec-10 19:56N 31°39' E 121°14'0 0.0
2017-Dec-10 19:23N 31°39' E 121°14'0 0.0
2017-Dec-10 18:56N 31°39' E 121°14'0 0.0
2017-Dec-10 18:23N 31°39' E 121°14'0 0.1
2017-Dec-10 17:50N 31°39' E 121°14'0 0.0
2017-Dec-10 17:29N 31°39' E 121°14'0 0.1
2017-Dec-10 16:59N 31°39' E 121°14'0 0.1
2017-Dec-10 16:29N 31°39' E 121°14'0 0.0
2017-Dec-10 15:53N 31°39' E 121°14'0 0.1
2017-Dec-10 15:29N 31°39' E 121°14'0 0.0
2017-Dec-10 14:47N 31°39' E 121°14'0 0.0
2017-Dec-10 14:29N 31°39' E 121°14'0 0.0
2017-Dec-10 13:23N 31°39' E 121°14'0 0.0
2017-Dec-10 12:59N 31°39' E 121°14'0 0.1
2017-Dec-10 12:20N 31°39' E 121°14'0 0.2
2017-Dec-10 11:53N 31°39' E 121°14'0 0.0
2017-Dec-10 11:26N 31°39' E 121°14'0 0.0
2017-Dec-10 10:38N 31°39' E 121°14'0 0.0
2017-Dec-10 10:29N 31°39' E 121°14'0 0.1
2017-Dec-10 09:56N 31°39' E 121°14'0 0.3
2017-Dec-10 09:29N 31°39' E 121°14'0 0.2
2017-Dec-10 08:59N 31°39' E 121°14'39 2.4
2017-Dec-09 16:51N 32°00' E 120°35'513.6
2017-Dec-09 16:30N 32°02' E 120°30'6 0.2
2017-Dec-08 02:29N 32°01' E 120°23'612.3
2017-Dec-08 02:00N 32°02' E 120°30'8211.0
2017-Dec-07 18:30N 31°13' E 121°48'714.3
2017-Dec-07 18:00N 31°08' E 121°54'612.5
2017-Dec-07 17:30N 31°05' E 122°01'5 9.3
2017-Dec-07 17:00N 31°04' E 122°06'5 9.1
2017-Dec-07 16:29N 31°03' E 122°11'4 8.0
2017-Dec-07 16:00N 31°03' E 122°16'  
Track history (hours):
 
Tides and Currents Weather Stations Pressure Air Temp Water Temp Dewpoint Dewpoint Depression Visibility Wind Speed Wind Dir Waves Ship Positions

Josco Star

Last reported at 2017-Dec-17 15:29 UTC. Time now 2017-Dec-17 15:47 UTC.
Position N 35°36' E 139°47'.

Length 143 m; draft 7 m.

Type: Cargo ship. MMSI: 477105800.

Date/timePositionNaut miles runAvg speedWind from/ knotsBaromVisibWave heightAir tempDewpointWater temp
2017-Dec-17 15:29N 35°36' E 139°47'0 0.0
2017-Dec-17 14:59N 35°36' E 139°47'0 0.0
2017-Dec-17 14:29N 35°36' E 139°47'0 0.0
2017-Dec-17 13:59N 35°36' E 139°47'0 0.0
2017-Dec-17 13:29N 35°36' E 139°47'0 0.0
2017-Dec-17 12:59N 35°36' E 139°47'0 0.0
2017-Dec-17 12:29N 35°36' E 139°47'0 0.1
2017-Dec-17 12:00N 35°36' E 139°47'2 3.4
2017-Dec-17 11:30N 35°35' E 139°48'510.7
2017-Dec-17 11:00N 35°31' E 139°52'611.0
2017-Dec-17 10:30N 35°26' E 139°48'5 9.7
2017-Dec-17 10:00N 35°26' E 139°42'1 2.1
2017-Dec-17 09:30N 35°26' E 139°41'0 0.1
2017-Dec-17 09:00N 35°26' E 139°41'0 0.0
2017-Dec-17 08:30N 35°26' E 139°41'0 0.0
2017-Dec-17 08:00N 35°26' E 139°41'0 0.0
2017-Dec-17 07:30N 35°26' E 139°41'0 0.0
2017-Dec-17 07:00N 35°26' E 139°41'0 0.0
2017-Dec-17 06:30N 35°26' E 139°41'0 0.0
2017-Dec-17 06:00N 35°26' E 139°41'0 0.0
2017-Dec-17 05:30N 35°26' E 139°41'0 0.0
2017-Dec-17 05:00N 35°26' E 139°41'0 0.0
2017-Dec-17 04:30N 35°26' E 139°41'0 0.0
2017-Dec-17 04:00N 35°26' E 139°41'0 0.0
2017-Dec-17 03:30N 35°26' E 139°41'0 0.0
2017-Dec-17 03:00N 35°26' E 139°41'1 2.2
2017-Dec-17 02:30N 35°26' E 139°42'4 8.0
2017-Dec-17 02:00N 35°23' E 139°43'612.0
2017-Dec-17 01:31N 35°17' E 139°46'612.2
2017-Dec-17 01:00N 35°11' E 139°47'713.1
2017-Dec-17 00:30N 35°05' E 139°44'713.9
2017-Dec-17 00:00N 35°00' E 139°37'714.9
2017-Dec-16 23:31N 34°56' E 139°30'815.1
2017-Dec-16 23:00N 34°52' E 139°22'815.3
2017-Dec-16 22:29N 34°46' E 139°15'814.3
2017-Dec-16 21:56N 34°40' E 139°09'614.3
2017-Dec-16 21:30N 34°35' E 139°04'714.1
2017-Dec-16 21:01N 34°31' E 138°58'714.3
2017-Dec-16 20:30N 34°26' E 138°51'714.2
2017-Dec-16 20:00N 34°23' E 138°43'814.9
2017-Dec-16 19:30N 34°21' E 138°35'714.1
2017-Dec-16 18:59N 34°18' E 138°26'713.5
2017-Dec-16 18:30N 34°16' E 138°19'713.5
2017-Dec-16 18:00N 34°13' E 138°12'813.9
2017-Dec-16 17:26N 34°10' E 138°03'613.8
2017-Dec-16 17:00N 34°08' E 137°56'14512.9
2017-Dec-16 05:48N 33°46' E 135°04'514.5
2017-Dec-16 05:28N 33°50' E 134°60'715.5
2017-Dec-16 05:00N 33°57' E 134°59'815.6
2017-Dec-16 04:30N 34°05' E 134°58'815.7
2017-Dec-16 04:00N 34°13' E 134°59'815.3
2017-Dec-16 03:31N 34°20' E 134°60'714.5
2017-Dec-16 03:00N 34°26' E 135°06'714.9
2017-Dec-16 02:31N 34°31' E 135°12'612.7
2017-Dec-16 02:00N 34°36' E 135°16'3 6.4
2017-Dec-16 01:30N 34°39' E 135°15'0 0.0
2017-Dec-16 01:00N 34°39' E 135°15'0 0.0
2017-Dec-16 00:30N 34°39' E 135°15'0 0.0
2017-Dec-16 00:00N 34°39' E 135°15'0 0.0
2017-Dec-15 23:30N 34°39' E 135°15'0 0.0
2017-Dec-15 23:00N 34°39' E 135°15'0 0.2
2017-Dec-15 22:31N 34°39' E 135°15'4 7.1
2017-Dec-15 22:01N 34°38' E 135°19'4 8.4
2017-Dec-15 21:31N 34°39' E 135°24'0 0.3
2017-Dec-15 21:00N 34°39' E 135°24'0 0.0
2017-Dec-15 20:27N 34°39' E 135°24'0 0.0
2017-Dec-15 20:00N 34°39' E 135°24'0 0.0
2017-Dec-15 19:27N 34°39' E 135°24'0 0.0
2017-Dec-15 18:57N 34°39' E 135°24'0 0.0
2017-Dec-15 18:27N 34°39' E 135°24'0 0.0
2017-Dec-15 18:00N 34°39' E 135°24'0 0.0
2017-Dec-15 17:27N 34°39' E 135°24'0 0.0
2017-Dec-15 16:57N 34°39' E 135°24'0 0.0
2017-Dec-15 16:30N 34°39' E 135°24'0 0.0
2017-Dec-15 16:00N 34°39' E 135°24'0 0.0
2017-Dec-15 15:27N 34°39' E 135°24'0 0.0
2017-Dec-15 14:57N 34°39' E 135°24'0 0.0
2017-Dec-15 14:27N 34°39' E 135°24'0 0.0
2017-Dec-15 14:00N 34°39' E 135°24'0 0.0
2017-Dec-15 13:30N 34°39' E 135°24'0 0.0
2017-Dec-15 13:00N 34°39' E 135°24'0 0.0
2017-Dec-15 12:27N 34°39' E 135°24'0 0.0
2017-Dec-15 12:00N 34°39' E 135°24'0 0.0
2017-Dec-15 11:29N 34°39' E 135°24'0 0.0
2017-Dec-15 10:57N 34°39' E 135°24'0 0.1
2017-Dec-15 10:30N 34°39' E 135°24'1 2.6
2017-Dec-15 10:00N 34°38' E 135°23'611.3
2017-Dec-15 09:31N 34°34' E 135°18'714.6
2017-Dec-15 09:00N 34°29' E 135°12'714.6
2017-Dec-15 08:30N 34°23' E 135°06'714.6
2017-Dec-15 08:01N 34°18' E 134°60'714.6
2017-Dec-15 07:31N 34°11' E 134°60'714.2
2017-Dec-15 07:01N 34°04' E 134°59'714.6
2017-Dec-15 06:30N 33°56' E 134°59'714.3
2017-Dec-15 06:00N 33°49' E 134°59'814.9
2017-Dec-15 05:30N 33°43' E 134°54'  
2017-Dec-12 02:04N 31°06' E 122°23'212.7
2017-Dec-12 01:55N 31°06' E 122°21'512.5
2017-Dec-12 01:30N 31°08' E 122°15'913.1
2017-Dec-12 00:49N 31°13' E 122°07'412.1
2017-Dec-12 00:30N 31°14' E 122°02'711.7
2017-Dec-11 23:51N 31°16' E 121°54'411.4
2017-Dec-11 23:30N 31°17' E 121°49'810.9
2017-Dec-11 22:45N 31°20' E 121°41'310.4
2017-Dec-11 22:26N 31°22' E 121°37'410.2
2017-Dec-11 22:00N 31°24' E 121°33'4 8.5
2017-Dec-11 21:30N 31°27' E 121°29'510.0
2017-Dec-11 21:00N 31°30' E 121°25'510.0
2017-Dec-11 20:30N 31°33' E 121°20'510.3
2017-Dec-11 20:00N 31°37' E 121°16'3 6.8
2017-Dec-11 19:31N 31°39' E 121°13'0 0.1
2017-Dec-11 18:54N 31°39' E 121°13'0 0.0
2017-Dec-11 18:30N 31°39' E 121°13'0 0.0
2017-Dec-11 18:00N 31°39' E 121°13'0 0.0
2017-Dec-11 17:30N 31°39' E 121°13'0 0.1
2017-Dec-11 16:54N 31°39' E 121°13'0 0.0
2017-Dec-11 16:30N 31°39' E 121°13'0 0.0
2017-Dec-11 15:30N 31°39' E 121°13'0 0.1
2017-Dec-11 14:30N 31°39' E 121°13'0 0.1
2017-Dec-11 14:00N 31°39' E 121°13'0 0.1
2017-Dec-11 13:30N 31°39' E 121°13'0 0.1
2017-Dec-11 12:57N 31°39' E 121°13'0 0.1
2017-Dec-11 12:30N 31°39' E 121°13'0 0.1
2017-Dec-11 12:00N 31°39' E 121°13'0 0.1
2017-Dec-11 11:30N 31°39' E 121°13'0 0.0
2017-Dec-11 11:00N 31°39' E 121°13'0 0.1
2017-Dec-11 10:30N 31°39' E 121°13'0 0.0
2017-Dec-11 09:48N 31°39' E 121°13'0 0.0
2017-Dec-11 09:30N 31°39' E 121°13'0 0.0
2017-Dec-11 09:00N 31°39' E 121°13'0 0.0
2017-Dec-11 08:30N 31°39' E 121°13'0 0.0
2017-Dec-11 07:54N 31°39' E 121°13'1 2.2
2017-Dec-11 07:30N 31°39' E 121°14'0 0.6
2017-Dec-11 06:59N 31°39' E 121°14'0 0.0
2017-Dec-11 06:29N 31°39' E 121°14'0 0.0
2017-Dec-11 05:56N 31°39' E 121°14'0 0.0
2017-Dec-11 05:05N 31°39' E 121°14'0 0.0
2017-Dec-11 04:59N 31°39' E 121°14'0 0.1
2017-Dec-11 04:23N 31°39' E 121°14'0 0.0
2017-Dec-11 03:59N 31°39' E 121°14'0 0.0
2017-Dec-11 03:29N 31°39' E 121°14'0 0.0
2017-Dec-11 02:56N 31°39' E 121°14'0 0.0
2017-Dec-11 02:20N 31°39' E 121°14'0 0.0
2017-Dec-11 01:59N 31°39' E 121°14'0 0.0
2017-Dec-11 01:29N 31°39' E 121°14'0 0.2
2017-Dec-11 00:59N 31°39' E 121°14'0 0.1
2017-Dec-11 00:29N 31°39' E 121°14'0 0.1
2017-Dec-10 23:59N 31°39' E 121°14'0 0.0
2017-Dec-10 23:29N 31°39' E 121°14'0 0.0
2017-Dec-10 22:47N 31°39' E 121°14'0 0.0
2017-Dec-10 22:29N 31°39' E 121°14'0 0.0
2017-Dec-10 21:53N 31°39' E 121°14'0 0.1
2017-Dec-10 21:29N 31°39' E 121°14'0 0.2
2017-Dec-10 20:59N 31°39' E 121°14'0 0.1
2017-Dec-10 20:05N 31°39' E 121°14'0 0.0
2017-Dec-10 19:56N 31°39' E 121°14'0 0.0
2017-Dec-10 19:23N 31°39' E 121°14'0 0.0
2017-Dec-10 18:56N 31°39' E 121°14'0 0.0
2017-Dec-10 18:23N 31°39' E 121°14'0 0.1
2017-Dec-10 17:50N 31°39' E 121°14'0 0.0
2017-Dec-10 17:29N 31°39' E 121°14'0 0.1
2017-Dec-10 16:59N 31°39' E 121°14'0 0.1
2017-Dec-10 16:29N 31°39' E 121°14'0 0.0
2017-Dec-10 15:53N 31°39' E 121°14'0 0.1
2017-Dec-10 15:29N 31°39' E 121°14'0 0.0
2017-Dec-10 14:47N 31°39' E 121°14'0 0.0
2017-Dec-10 14:29N 31°39' E 121°14'0 0.0
2017-Dec-10 13:23N 31°39' E 121°14'0 0.0
2017-Dec-10 12:59N 31°39' E 121°14'0 0.1
2017-Dec-10 12:20N 31°39' E 121°14'0 0.2
2017-Dec-10 11:53N 31°39' E 121°14'0 0.0
2017-Dec-10 11:26N 31°39' E 121°14'0 0.0
2017-Dec-10 10:38N 31°39' E 121°14'0 0.0
2017-Dec-10 10:29N 31°39' E 121°14'0 0.1
2017-Dec-10 09:56N 31°39' E 121°14'0 0.3
2017-Dec-10 09:29N 31°39' E 121°14'0 0.2
2017-Dec-10 08:59N 31°39' E 121°14'39 2.4
2017-Dec-09 16:51N 32°00' E 120°35'513.6
2017-Dec-09 16:30N 32°02' E 120°30'6 0.2
2017-Dec-08 02:29N 32°01' E 120°23'612.3
2017-Dec-08 02:00N 32°02' E 120°30'8211.0
2017-Dec-07 18:30N 31°13' E 121°48'714.3
2017-Dec-07 18:00N 31°08' E 121°54'612.5
2017-Dec-07 17:30N 31°05' E 122°01'5 9.3
2017-Dec-07 17:00N 31°04' E 122°06'5 9.1
2017-Dec-07 16:29N 31°03' E 122°11'4 8.0
2017-Dec-07 16:00N 31°03' E 122°16'  

Dump ship's entire track history